sensor_id;sensor_type;location;lat;lon;timestamp;temperature;humidity
14053;DHT22;7101;51.600;7.310;2023-11-21T00:01:14;6.90;99.90
14053;DHT22;7101;51.600;7.310;2023-11-21T00:03:42;6.90;99.90
14053;DHT22;7101;51.600;7.310;2023-11-21T00:06:09;7.00;99.90
14053;DHT22;7101;51.600;7.310;2023-11-21T00:08:36;7.00;99.90
14053;DHT22;7101;51.600;7.310;2023-11-21T00:11:03;7.10;99.90
14053;DHT22;7101;51.600;7.310;2023-11-21T00:13:31;7.10;99.90
14053;DHT22;7101;51.600;7.310;2023-11-21T00:15:58;7.10;99.90
14053;DHT22;7101;51.600;7.310;2023-11-21T00:18:26;7.20;99.90
14053;DHT22;7101;51.600;7.310;2023-11-21T00:20:53;7.20;99.90
14053;DHT22;7101;51.600;7.310;2023-11-21T00:23:20;7.20;99.90
14053;DHT22;7101;51.600;7.310;2023-11-21T00:25:47;7.30;99.90
14053;DHT22;7101;51.600;7.310;2023-11-21T00:28:14;7.30;99.90
14053;DHT22;7101;51.600;7.310;2023-11-21T00:30:40;7.30;99.90
14053;DHT22;7101;51.600;7.310;2023-11-21T00:33:07;7.30;99.90
14053;DHT22;7101;51.600;7.310;2023-11-21T00:35:36;7.40;99.90
14053;DHT22;7101;51.600;7.310;2023-11-21T00:38:02;7.40;99.90
14053;DHT22;7101;51.600;7.310;2023-11-21T00:40:29;7.40;99.90
14053;DHT22;7101;51.600;7.310;2023-11-21T00:42:56;7.40;99.90
14053;DHT22;7101;51.600;7.310;2023-11-21T00:45:23;7.40;99.90
14053;DHT22;7101;51.600;7.310;2023-11-21T00:47:50;7.40;99.90
14053;DHT22;7101;51.600;7.310;2023-11-21T00:50:17;7.40;99.90
14053;DHT22;7101;51.600;7.310;2023-11-21T00:52:46;7.40;99.90
14053;DHT22;7101;51.600;7.310;2023-11-21T00:55:13;7.40;99.90
14053;DHT22;7101;51.600;7.310;2023-11-21T00:57:40;7.40;99.90
14053;DHT22;7101;51.600;7.310;2023-11-21T01:00:08;7.40;99.90
14053;DHT22;7101;51.600;7.310;2023-11-21T01:02:39;7.40;99.90
14053;DHT22;7101;51.600;7.310;2023-11-21T01:05:06;7.40;99.90
14053;DHT22;7101;51.600;7.310;2023-11-21T01:07:34;7.40;99.90
14053;DHT22;7101;51.600;7.310;2023-11-21T01:10:04;7.40;99.90
14053;DHT22;7101;51.600;7.310;2023-11-21T01:12:33;7.40;99.90
14053;DHT22;7101;51.600;7.310;2023-11-21T01:15:00;7.50;99.90
14053;DHT22;7101;51.600;7.310;2023-11-21T01:17:27;7.50;99.90
14053;DHT22;7101;51.600;7.310;2023-11-21T01:19:54;7.50;99.90
14053;DHT22;7101;51.600;7.310;2023-11-21T01:22:21;7.50;99.90
14053;DHT22;7101;51.600;7.310;2023-11-21T01:24:51;7.60;99.90
14053;DHT22;7101;51.600;7.310;2023-11-21T01:27:20;7.60;99.90
14053;DHT22;7101;51.600;7.310;2023-11-21T01:29:46;7.60;99.90
14053;DHT22;7101;51.600;7.310;2023-11-21T01:32:13;7.70;99.90
14053;DHT22;7101;51.600;7.310;2023-11-21T01:34:40;7.70;99.90
14053;DHT22;7101;51.600;7.310;2023-11-21T01:37:07;7.70;99.90
14053;DHT22;7101;51.600;7.310;2023-11-21T01:39:34;7.70;99.90
14053;DHT22;7101;51.600;7.310;2023-11-21T01:42:05;7.80;99.90
14053;DHT22;7101;51.600;7.310;2023-11-21T01:44:34;7.80;99.90
14053;DHT22;7101;51.600;7.310;2023-11-21T01:47:01;7.70;99.90
14053;DHT22;7101;51.600;7.310;2023-11-21T01:49:31;7.70;99.90
14053;DHT22;7101;51.600;7.310;2023-11-21T01:51:59;7.80;99.90
14053;DHT22;7101;51.600;7.310;2023-11-21T01:54:26;7.70;99.90
14053;DHT22;7101;51.600;7.310;2023-11-21T01:56:57;7.70;99.90
14053;DHT22;7101;51.600;7.310;2023-11-21T01:59:34;7.70;99.90
14053;DHT22;7101;51.600;7.310;2023-11-21T02:02:02;7.70;99.90
14053;DHT22;7101;51.600;7.310;2023-11-21T02:04:30;7.70;99.90
14053;DHT22;7101;51.600;7.310;2023-11-21T02:06:58;7.70;99.90
14053;DHT22;7101;51.600;7.310;2023-11-21T02:09:26;7.60;99.90
14053;DHT22;7101;51.600;7.310;2023-11-21T02:11:53;7.60;99.90
14053;DHT22;7101;51.600;7.310;2023-11-21T02:14:20;7.70;99.90
14053;DHT22;7101;51.600;7.310;2023-11-21T02:16:50;7.70;99.90
14053;DHT22;7101;51.600;7.310;2023-11-21T02:19:19;7.60;99.90
14053;DHT22;7101;51.600;7.310;2023-11-21T02:21:49;7.70;99.90
14053;DHT22;7101;51.600;7.310;2023-11-21T02:24:19;7.70;99.90
14053;DHT22;7101;51.600;7.310;2023-11-21T02:26:46;7.70;99.90
14053;DHT22;7101;51.600;7.310;2023-11-21T02:29:12;7.70;99.90
14053;DHT22;7101;51.600;7.310;2023-11-21T02:31:42;7.70;99.90
14053;DHT22;7101;51.600;7.310;2023-11-21T02:34:13;7.70;99.90
14053;DHT22;7101;51.600;7.310;2023-11-21T02:36:40;7.60;99.90
14053;DHT22;7101;51.600;7.310;2023-11-21T02:39:08;7.50;99.90
14053;DHT22;7101;51.600;7.310;2023-11-21T02:41:37;7.40;99.90
14053;DHT22;7101;51.600;7.310;2023-11-21T02:44:04;7.40;99.90
14053;DHT22;7101;51.600;7.310;2023-11-21T02:46:32;7.40;99.90
14053;DHT22;7101;51.600;7.310;2023-11-21T02:49:00;7.40;99.90
14053;DHT22;7101;51.600;7.310;2023-11-21T02:51:27;7.50;99.90
14053;DHT22;7101;51.600;7.310;2023-11-21T02:53:54;7.50;99.90
14053;DHT22;7101;51.600;7.310;2023-11-21T02:56:25;7.60;99.90
14053;DHT22;7101;51.600;7.310;2023-11-21T02:58:55;7.50;99.90
14053;DHT22;7101;51.600;7.310;2023-11-21T03:01:22;7.50;99.90
14053;DHT22;7101;51.600;7.310;2023-11-21T03:03:50;7.50;99.90
14053;DHT22;7101;51.600;7.310;2023-11-21T03:06:17;7.50;99.90
14053;DHT22;7101;51.600;7.310;2023-11-21T03:08:44;7.50;99.90
14053;DHT22;7101;51.600;7.310;2023-11-21T03:11:11;7.50;99.90
14053;DHT22;7101;51.600;7.310;2023-11-21T03:13:39;7.50;99.90
14053;DHT22;7101;51.600;7.310;2023-11-21T03:16:08;7.50;99.90
14053;DHT22;7101;51.600;7.310;2023-11-21T03:18:35;7.50;99.90
14053;DHT22;7101;51.600;7.310;2023-11-21T03:21:04;7.50;99.90
14053;DHT22;7101;51.600;7.310;2023-11-21T03:23:31;7.50;99.90
14053;DHT22;7101;51.600;7.310;2023-11-21T03:25:58;7.50;99.90
14053;DHT22;7101;51.600;7.310;2023-11-21T03:28:25;7.40;99.90
14053;DHT22;7101;51.600;7.310;2023-11-21T03:30:52;7.50;99.90
14053;DHT22;7101;51.600;7.310;2023-11-21T03:33:20;7.40;99.90
14053;DHT22;7101;51.600;7.310;2023-11-21T03:35:47;7.40;99.90
14053;DHT22;7101;51.600;7.310;2023-11-21T03:38:14;7.40;99.90
14053;DHT22;7101;51.600;7.310;2023-11-21T03:40:42;7.50;99.90
14053;DHT22;7101;51.600;7.310;2023-11-21T03:43:09;7.50;99.90
14053;DHT22;7101;51.600;7.310;2023-11-21T03:45:36;7.50;99.90
14053;DHT22;7101;51.600;7.310;2023-11-21T03:48:03;7.50;99.90
14053;DHT22;7101;51.600;7.310;2023-11-21T03:50:31;7.50;99.90
14053;DHT22;7101;51.600;7.310;2023-11-21T03:52:58;7.50;99.90
14053;DHT22;7101;51.600;7.310;2023-11-21T03:55:24;7.50;99.90
14053;DHT22;7101;51.600;7.310;2023-11-21T03:57:51;7.50;99.90
14053;DHT22;7101;51.600;7.310;2023-11-21T04:00:18;7.50;99.90
14053;DHT22;7101;51.600;7.310;2023-11-21T04:02:46;7.50;99.90
14053;DHT22;7101;51.600;7.310;2023-11-21T04:05:13;7.50;99.90
14053;DHT22;7101;51.600;7.310;2023-11-21T04:07:41;7.50;99.90
14053;DHT22;7101;51.600;7.310;2023-11-21T04:10:08;7.50;99.90
14053;DHT22;7101;51.600;7.310;2023-11-21T04:12:38;7.60;99.90
14053;DHT22;7101;51.600;7.310;2023-11-21T04:15:05;7.50;99.90
14053;DHT22;7101;51.600;7.310;2023-11-21T04:17:34;7.60;99.90
14053;DHT22;7101;51.600;7.310;2023-11-21T04:20:02;7.60;99.90
14053;DHT22;7101;51.600;7.310;2023-11-21T04:22:31;7.60;99.90
14053;DHT22;7101;51.600;7.310;2023-11-21T04:24:59;7.60;99.90
14053;DHT22;7101;51.600;7.310;2023-11-21T04:27:27;7.60;99.90
14053;DHT22;7101;51.600;7.310;2023-11-21T04:29:53;7.50;99.90
14053;DHT22;7101;51.600;7.310;2023-11-21T04:32:20;7.50;99.90
14053;DHT22;7101;51.600;7.310;2023-11-21T04:34:47;7.50;99.90
14053;DHT22;7101;51.600;7.310;2023-11-21T04:37:14;7.50;99.90
14053;DHT22;7101;51.600;7.310;2023-11-21T04:39:40;7.50;99.90
14053;DHT22;7101;51.600;7.310;2023-11-21T04:42:09;7.40;99.90
14053;DHT22;7101;51.600;7.310;2023-11-21T04:44:35;7.40;99.90
14053;DHT22;7101;51.600;7.310;2023-11-21T04:47:02;7.40;99.90
14053;DHT22;7101;51.600;7.310;2023-11-21T04:49:30;7.30;99.90
14053;DHT22;7101;51.600;7.310;2023-11-21T04:51:57;7.20;99.90
14053;DHT22;7101;51.600;7.310;2023-11-21T04:54:23;7.10;99.90
14053;DHT22;7101;51.600;7.310;2023-11-21T04:56:50;7.00;99.90
14053;DHT22;7101;51.600;7.310;2023-11-21T04:59:18;6.90;99.90
14053;DHT22;7101;51.600;7.310;2023-11-21T05:01:45;6.80;99.90
14053;DHT22;7101;51.600;7.310;2023-11-21T05:04:12;6.70;99.90
14053;DHT22;7101;51.600;7.310;2023-11-21T05:06:40;6.50;99.90
14053;DHT22;7101;51.600;7.310;2023-11-21T05:09:07;6.40;99.90
14053;DHT22;7101;51.600;7.310;2023-11-21T05:11:37;6.30;99.90
14053;DHT22;7101;51.600;7.310;2023-11-21T05:14:04;6.20;99.90
14053;DHT22;7101;51.600;7.310;2023-11-21T05:16:33;6.20;99.90
14053;DHT22;7101;51.600;7.310;2023-11-21T05:19:00;6.10;99.90
14053;DHT22;7101;51.600;7.310;2023-11-21T05:21:28;6.10;99.90
14053;DHT22;7101;51.600;7.310;2023-11-21T05:23:55;6.00;99.90
14053;DHT22;7101;51.600;7.310;2023-11-21T05:26:21;5.90;99.90
14053;DHT22;7101;51.600;7.310;2023-11-21T05:28:48;5.80;99.90
14053;DHT22;7101;51.600;7.310;2023-11-21T05:31:15;5.90;99.90
14053;DHT22;7101;51.600;7.310;2023-11-21T05:33:44;5.80;99.90
14053;DHT22;7101;51.600;7.310;2023-11-21T05:36:11;5.80;99.90
14053;DHT22;7101;51.600;7.310;2023-11-21T05:38:38;5.80;99.90
14053;DHT22;7101;51.600;7.310;2023-11-21T05:41:05;5.80;99.90
14053;DHT22;7101;51.600;7.310;2023-11-21T05:43:32;5.80;99.90
14053;DHT22;7101;51.600;7.310;2023-11-21T05:46:02;5.70;99.90
14053;DHT22;7101;51.600;7.310;2023-11-21T05:48:28;5.70;99.90
14053;DHT22;7101;51.600;7.310;2023-11-21T05:50:57;5.70;99.90
14053;DHT22;7101;51.600;7.310;2023-11-21T05:53:24;5.60;99.90
14053;DHT22;7101;51.600;7.310;2023-11-21T05:55:51;5.50;99.90
14053;DHT22;7101;51.600;7.310;2023-11-21T05:58:18;5.40;99.90
14053;DHT22;7101;51.600;7.310;2023-11-21T06:00:45;5.40;99.90
14053;DHT22;7101;51.600;7.310;2023-11-21T06:03:12;5.30;99.90
14053;DHT22;7101;51.600;7.310;2023-11-21T06:05:39;5.30;99.90
14053;DHT22;7101;51.600;7.310;2023-11-21T06:08:07;5.30;99.90
14053;DHT22;7101;51.600;7.310;2023-11-21T06:10:34;5.30;99.90
14053;DHT22;7101;51.600;7.310;2023-11-21T06:13:01;5.30;99.90
14053;DHT22;7101;51.600;7.310;2023-11-21T06:15:29;5.20;99.90
14053;DHT22;7101;51.600;7.310;2023-11-21T06:17:56;5.20;99.90
14053;DHT22;7101;51.600;7.310;2023-11-21T06:20:24;5.20;99.90
14053;DHT22;7101;51.600;7.310;2023-11-21T06:22:51;5.30;99.90
14053;DHT22;7101;51.600;7.310;2023-11-21T06:25:19;5.30;99.90
14053;DHT22;7101;51.600;7.310;2023-11-21T06:27:47;5.40;99.90
14053;DHT22;7101;51.600;7.310;2023-11-21T06:30:15;5.40;99.90
14053;DHT22;7101;51.600;7.310;2023-11-21T06:32:42;5.50;99.90
14053;DHT22;7101;51.600;7.310;2023-11-21T06:35:11;5.60;99.90
14053;DHT22;7101;51.600;7.310;2023-11-21T06:37:38;5.70;99.90
14053;DHT22;7101;51.600;7.310;2023-11-21T06:40:06;5.70;99.90
14053;DHT22;7101;51.600;7.310;2023-11-21T06:42:36;5.70;99.90
14053;DHT22;7101;51.600;7.310;2023-11-21T06:45:05;5.80;99.90
14053;DHT22;7101;51.600;7.310;2023-11-21T06:47:31;5.80;99.90
14053;DHT22;7101;51.600;7.310;2023-11-21T06:49:58;5.90;99.90
14053;DHT22;7101;51.600;7.310;2023-11-21T06:52:26;6.00;99.90
14053;DHT22;7101;51.600;7.310;2023-11-21T06:54:52;6.00;99.90
14053;DHT22;7101;51.600;7.310;2023-11-21T06:57:20;6.00;99.90
14053;DHT22;7101;51.600;7.310;2023-11-21T06:59:48;6.10;99.90
14053;DHT22;7101;51.600;7.310;2023-11-21T07:02:16;6.10;99.90
14053;DHT22;7101;51.600;7.310;2023-11-21T07:04:44;6.20;99.90
14053;DHT22;7101;51.600;7.310;2023-11-21T07:07:11;6.20;99.90
14053;DHT22;7101;51.600;7.310;2023-11-21T07:09:38;6.20;99.90
14053;DHT22;7101;51.600;7.310;2023-11-21T07:12:06;6.20;99.90
14053;DHT22;7101;51.600;7.310;2023-11-21T07:14:33;6.30;99.90
14053;DHT22;7101;51.600;7.310;2023-11-21T07:17:02;6.30;99.90
14053;DHT22;7101;51.600;7.310;2023-11-21T07:19:28;6.30;99.90
14053;DHT22;7101;51.600;7.310;2023-11-21T07:21:56;6.40;99.90
14053;DHT22;7101;51.600;7.310;2023-11-21T07:24:23;6.30;99.90
14053;DHT22;7101;51.600;7.310;2023-11-21T07:26:50;6.40;99.90
14053;DHT22;7101;51.600;7.310;2023-11-21T07:29:16;6.40;99.90
14053;DHT22;7101;51.600;7.310;2023-11-21T07:31:45;6.60;99.90
14053;DHT22;7101;51.600;7.310;2023-11-21T07:34:13;6.60;99.90
14053;DHT22;7101;51.600;7.310;2023-11-21T07:36:41;6.70;99.90
14053;DHT22;7101;51.600;7.310;2023-11-21T07:39:08;6.70;99.90
14053;DHT22;7101;51.600;7.310;2023-11-21T07:41:36;6.80;99.90
14053;DHT22;7101;51.600;7.310;2023-11-21T07:44:04;6.90;99.90
14053;DHT22;7101;51.600;7.310;2023-11-21T07:46:31;6.90;99.90
14053;DHT22;7101;51.600;7.310;2023-11-21T07:48:58;7.00;99.90
14053;DHT22;7101;51.600;7.310;2023-11-21T07:51:26;7.00;99.90
14053;DHT22;7101;51.600;7.310;2023-11-21T07:53:54;7.00;99.90
14053;DHT22;7101;51.600;7.310;2023-11-21T07:56:21;7.10;99.90
14053;DHT22;7101;51.600;7.310;2023-11-21T07:58:47;7.10;99.90
14053;DHT22;7101;51.600;7.310;2023-11-21T08:01:15;7.20;99.90
14053;DHT22;7101;51.600;7.310;2023-11-21T08:03:43;7.20;99.90
14053;DHT22;7101;51.600;7.310;2023-11-21T08:06:09;7.20;99.90
14053;DHT22;7101;51.600;7.310;2023-11-21T08:08:38;7.20;99.90
14053;DHT22;7101;51.600;7.310;2023-11-21T08:11:05;7.30;99.90
14053;DHT22;7101;51.600;7.310;2023-11-21T08:13:33;7.40;99.90
14053;DHT22;7101;51.600;7.310;2023-11-21T08:16:00;7.40;99.90
14053;DHT22;7101;51.600;7.310;2023-11-21T08:18:30;7.50;99.90
14053;DHT22;7101;51.600;7.310;2023-11-21T08:20:57;7.60;99.90
14053;DHT22;7101;51.600;7.310;2023-11-21T08:23:24;7.80;99.90
14053;DHT22;7101;51.600;7.310;2023-11-21T08:25:53;7.90;99.90
14053;DHT22;7101;51.600;7.310;2023-11-21T08:28:21;8.00;99.90
14053;DHT22;7101;51.600;7.310;2023-11-21T08:30:48;8.00;99.90
14053;DHT22;7101;51.600;7.310;2023-11-21T08:33:15;8.00;99.90
14053;DHT22;7101;51.600;7.310;2023-11-21T08:35:42;8.20;99.90
14053;DHT22;7101;51.600;7.310;2023-11-21T08:38:09;8.30;99.90
14053;DHT22;7101;51.600;7.310;2023-11-21T08:40:37;8.30;99.90
14053;DHT22;7101;51.600;7.310;2023-11-21T08:43:05;8.40;99.90
14053;DHT22;7101;51.600;7.310;2023-11-21T08:45:32;8.50;99.90
14053;DHT22;7101;51.600;7.310;2023-11-21T08:48:00;8.50;99.90
14053;DHT22;7101;51.600;7.310;2023-11-21T08:50:27;8.60;99.90
14053;DHT22;7101;51.600;7.310;2023-11-21T08:52:54;8.60;99.90
14053;DHT22;7101;51.600;7.310;2023-11-21T08:55:22;8.60;99.90
14053;DHT22;7101;51.600;7.310;2023-11-21T08:57:49;8.60;99.90
14053;DHT22;7101;51.600;7.310;2023-11-21T09:00:18;8.80;99.90
14053;DHT22;7101;51.600;7.310;2023-11-21T09:02:45;8.90;99.90
14053;DHT22;7101;51.600;7.310;2023-11-21T09:05:13;9.00;99.90
14053;DHT22;7101;51.600;7.310;2023-11-21T09:07:41;8.80;99.90
14053;DHT22;7101;51.600;7.310;2023-11-21T09:10:09;8.70;99.90
14053;DHT22;7101;51.600;7.310;2023-11-21T09:12:36;8.90;99.90
14053;DHT22;7101;51.600;7.310;2023-11-21T09:15:04;8.90;99.90
14053;DHT22;7101;51.600;7.310;2023-11-21T09:17:33;9.10;99.90
14053;DHT22;7101;51.600;7.310;2023-11-21T09:20:01;9.30;99.90
14053;DHT22;7101;51.600;7.310;2023-11-21T09:22:31;9.40;99.90
14053;DHT22;7101;51.600;7.310;2023-11-21T09:24:57;9.40;99.90
14053;DHT22;7101;51.600;7.310;2023-11-21T09:27:24;9.40;99.90
14053;DHT22;7101;51.600;7.310;2023-11-21T09:29:52;9.40;99.90
14053;DHT22;7101;51.600;7.310;2023-11-21T09:32:20;9.40;99.90
14053;DHT22;7101;51.600;7.310;2023-11-21T09:34:48;9.50;99.90
14053;DHT22;7101;51.600;7.310;2023-11-21T09:37:15;9.60;99.90
14053;DHT22;7101;51.600;7.310;2023-11-21T09:39:42;9.50;99.90
14053;DHT22;7101;51.600;7.310;2023-11-21T09:42:11;9.50;99.90
14053;DHT22;7101;51.600;7.310;2023-11-21T09:44:45;9.50;99.90
14053;DHT22;7101;51.600;7.310;2023-11-21T09:47:15;9.60;99.90
14053;DHT22;7101;51.600;7.310;2023-11-21T09:49:44;9.60;99.90
14053;DHT22;7101;51.600;7.310;2023-11-21T09:52:21;9.60;99.90
14053;DHT22;7101;51.600;7.310;2023-11-21T09:54:51;9.70;99.90
14053;DHT22;7101;51.600;7.310;2023-11-21T09:57:19;9.70;99.90
14053;DHT22;7101;51.600;7.310;2023-11-21T09:59:47;9.70;99.90
14053;DHT22;7101;51.600;7.310;2023-11-21T10:02:17;9.80;99.90
14053;DHT22;7101;51.600;7.310;2023-11-21T10:04:46;9.80;99.90
14053;DHT22;7101;51.600;7.310;2023-11-21T10:07:17;9.90;99.90
14053;DHT22;7101;51.600;7.310;2023-11-21T10:09:46;10.00;99.90
14053;DHT22;7101;51.600;7.310;2023-11-21T10:12:15;10.10;99.90
14053;DHT22;7101;51.600;7.310;2023-11-21T10:14:42;10.20;99.90
14053;DHT22;7101;51.600;7.310;2023-11-21T10:17:10;10.00;99.90
14053;DHT22;7101;51.600;7.310;2023-11-21T10:19:39;9.80;99.90
14053;DHT22;7101;51.600;7.310;2023-11-21T10:22:06;9.80;99.90
14053;DHT22;7101;51.600;7.310;2023-11-21T10:24:35;9.80;99.90
14053;DHT22;7101;51.600;7.310;2023-11-21T10:27:04;9.70;99.90
14053;DHT22;7101;51.600;7.310;2023-11-21T10:29:31;9.70;99.90
14053;DHT22;7101;51.600;7.310;2023-11-21T10:32:02;9.80;99.90
14053;DHT22;7101;51.600;7.310;2023-11-21T10:34:29;9.90;99.90
14053;DHT22;7101;51.600;7.310;2023-11-21T10:36:56;10.00;99.90
14053;DHT22;7101;51.600;7.310;2023-11-21T10:39:24;10.00;99.90
14053;DHT22;7101;51.600;7.310;2023-11-21T10:41:55;10.00;99.90
14053;DHT22;7101;51.600;7.310;2023-11-21T10:44:22;10.10;99.90
14053;DHT22;7101;51.600;7.310;2023-11-21T10:46:50;10.10;99.90
14053;DHT22;7101;51.600;7.310;2023-11-21T10:49:20;10.00;99.90
14053;DHT22;7101;51.600;7.310;2023-11-21T10:51:47;10.00;99.90
14053;DHT22;7101;51.600;7.310;2023-11-21T10:54:18;9.90;99.90
14053;DHT22;7101;51.600;7.310;2023-11-21T10:56:46;9.80;99.90
14053;DHT22;7101;51.600;7.310;2023-11-21T10:59:15;9.80;99.90
14053;DHT22;7101;51.600;7.310;2023-11-21T11:01:42;10.00;99.90
14053;DHT22;7101;51.600;7.310;2023-11-21T11:04:11;10.00;99.90
14053;DHT22;7101;51.600;7.310;2023-11-21T11:06:42;9.90;99.90
14053;DHT22;7101;51.600;7.310;2023-11-21T11:09:11;9.70;99.90
14053;DHT22;7101;51.600;7.310;2023-11-21T11:11:39;9.60;99.90
14053;DHT22;7101;51.600;7.310;2023-11-21T11:14:08;9.60;99.90
14053;DHT22;7101;51.600;7.310;2023-11-21T11:16:37;9.50;99.90
14053;DHT22;7101;51.600;7.310;2023-11-21T11:19:06;9.40;99.90
14053;DHT22;7101;51.600;7.310;2023-11-21T11:21:43;9.40;99.90
14053;DHT22;7101;51.600;7.310;2023-11-21T11:24:33;9.40;99.90
14053;DHT22;7101;51.600;7.310;2023-11-21T11:27:21;9.30;99.90
14053;DHT22;7101;51.600;7.310;2023-11-21T11:29:59;9.30;99.90
14053;DHT22;7101;51.600;7.310;2023-11-21T11:32:38;9.30;99.90
14053;DHT22;7101;51.600;7.310;2023-11-21T11:35:11;9.30;99.90
14053;DHT22;7101;51.600;7.310;2023-11-21T11:37:42;9.30;99.90
14053;DHT22;7101;51.600;7.310;2023-11-21T11:40:11;9.20;99.90
14053;DHT22;7101;51.600;7.310;2023-11-21T11:42:38;9.20;99.90
14053;DHT22;7101;51.600;7.310;2023-11-21T11:45:17;9.20;99.90
14053;DHT22;7101;51.600;7.310;2023-11-21T11:47:47;9.30;99.90
14053;DHT22;7101;51.600;7.310;2023-11-21T11:50:15;9.20;99.90
14053;DHT22;7101;51.600;7.310;2023-11-21T11:52:44;9.20;99.90
14053;DHT22;7101;51.600;7.310;2023-11-21T11:55:12;9.40;99.90
14053;DHT22;7101;51.600;7.310;2023-11-21T11:57:43;9.40;99.90
14053;DHT22;7101;51.600;7.310;2023-11-21T12:00:15;9.40;99.90
14053;DHT22;7101;51.600;7.310;2023-11-21T12:02:45;9.40;99.90
14053;DHT22;7101;51.600;7.310;2023-11-21T12:05:14;9.50;99.90
14053;DHT22;7101;51.600;7.310;2023-11-21T12:07:46;9.50;99.90
14053;DHT22;7101;51.600;7.310;2023-11-21T12:10:14;9.50;99.90
14053;DHT22;7101;51.600;7.310;2023-11-21T12:12:44;9.50;99.90
14053;DHT22;7101;51.600;7.310;2023-11-21T12:15:12;9.60;99.90
14053;DHT22;7101;51.600;7.310;2023-11-21T12:17:39;9.50;99.90
14053;DHT22;7101;51.600;7.310;2023-11-21T12:20:09;9.40;99.90
14053;DHT22;7101;51.600;7.310;2023-11-21T12:22:47;9.40;99.90
14053;DHT22;7101;51.600;7.310;2023-11-21T12:25:15;9.40;99.90
14053;DHT22;7101;51.600;7.310;2023-11-21T12:27:44;9.30;99.90
14053;DHT22;7101;51.600;7.310;2023-11-21T12:30:13;9.30;99.90
14053;DHT22;7101;51.600;7.310;2023-11-21T12:32:41;9.30;99.90
14053;DHT22;7101;51.600;7.310;2023-11-21T12:35:10;9.30;99.90
14053;DHT22;7101;51.600;7.310;2023-11-21T12:37:37;9.40;99.90
14053;DHT22;7101;51.600;7.310;2023-11-21T12:40:07;9.40;99.90
14053;DHT22;7101;51.600;7.310;2023-11-21T12:42:37;9.40;99.90
14053;DHT22;7101;51.600;7.310;2023-11-21T12:45:08;9.40;99.90
14053;DHT22;7101;51.600;7.310;2023-11-21T12:47:40;9.50;99.90
14053;DHT22;7101;51.600;7.310;2023-11-21T12:50:09;9.50;99.90
14053;DHT22;7101;51.600;7.310;2023-11-21T12:52:41;9.50;99.90
14053;DHT22;7101;51.600;7.310;2023-11-21T12:55:09;9.50;99.90
14053;DHT22;7101;51.600;7.310;2023-11-21T12:57:42;9.50;99.90
14053;DHT22;7101;51.600;7.310;2023-11-21T13:00:11;9.50;99.90
14053;DHT22;7101;51.600;7.310;2023-11-21T13:02:50;9.50;99.90
14053;DHT22;7101;51.600;7.310;2023-11-21T13:05:28;9.40;99.90
14053;DHT22;7101;51.600;7.310;2023-11-21T13:07:56;9.40;99.90
14053;DHT22;7101;51.600;7.310;2023-11-21T13:10:24;9.30;99.90
14053;DHT22;7101;51.600;7.310;2023-11-21T13:12:55;9.40;99.90
14053;DHT22;7101;51.600;7.310;2023-11-21T13:15:24;9.30;99.90
14053;DHT22;7101;51.600;7.310;2023-11-21T13:17:50;9.20;99.90
14053;DHT22;7101;51.600;7.310;2023-11-21T13:20:19;9.20;99.90
14053;DHT22;7101;51.600;7.310;2023-11-21T13:22:51;9.20;99.90
14053;DHT22;7101;51.600;7.310;2023-11-21T13:25:21;9.20;99.90
14053;DHT22;7101;51.600;7.310;2023-11-21T13:27:48;9.10;99.90
14053;DHT22;7101;51.600;7.310;2023-11-21T13:30:16;9.10;99.90
14053;DHT22;7101;51.600;7.310;2023-11-21T13:32:44;9.10;99.90
14053;DHT22;7101;51.600;7.310;2023-11-21T13:35:11;9.00;99.90
14053;DHT22;7101;51.600;7.310;2023-11-21T13:37:51;9.00;99.90
14053;DHT22;7101;51.600;7.310;2023-11-21T13:40:22;9.00;99.90
14053;DHT22;7101;51.600;7.310;2023-11-21T13:42:51;9.00;99.90
14053;DHT22;7101;51.600;7.310;2023-11-21T13:45:21;9.00;99.90
14053;DHT22;7101;51.600;7.310;2023-11-21T13:47:49;9.00;99.90
14053;DHT22;7101;51.600;7.310;2023-11-21T13:50:22;9.10;99.90
14053;DHT22;7101;51.600;7.310;2023-11-21T13:52:51;9.00;99.90
14053;DHT22;7101;51.600;7.310;2023-11-21T13:55:19;9.10;99.90
14053;DHT22;7101;51.600;7.310;2023-11-21T13:57:51;9.10;99.90
14053;DHT22;7101;51.600;7.310;2023-11-21T14:00:18;9.10;99.90
14053;DHT22;7101;51.600;7.310;2023-11-21T14:03:03;9.20;99.90
14053;DHT22;7101;51.600;7.310;2023-11-21T14:05:34;9.20;99.90
14053;DHT22;7101;51.600;7.310;2023-11-21T14:08:02;9.20;99.90
14053;DHT22;7101;51.600;7.310;2023-11-21T14:10:31;9.20;99.90
14053;DHT22;7101;51.600;7.310;2023-11-21T14:13:06;9.10;99.90
14053;DHT22;7101;51.600;7.310;2023-11-21T14:15:32;9.10;99.90
14053;DHT22;7101;51.600;7.310;2023-11-21T14:18:04;9.10;99.90
14053;DHT22;7101;51.600;7.310;2023-11-21T14:20:33;9.10;99.90
14053;DHT22;7101;51.600;7.310;2023-11-21T14:23:03;9.10;99.90
14053;DHT22;7101;51.600;7.310;2023-11-21T14:25:31;9.00;99.90
14053;DHT22;7101;51.600;7.310;2023-11-21T14:28:00;9.10;99.90
14053;DHT22;7101;51.600;7.310;2023-11-21T14:30:28;9.00;99.90
14053;DHT22;7101;51.600;7.310;2023-11-21T14:32:57;9.10;99.90
14053;DHT22;7101;51.600;7.310;2023-11-21T14:35:24;9.00;99.90
14053;DHT22;7101;51.600;7.310;2023-11-21T14:37:52;9.00;99.90
14053;DHT22;7101;51.600;7.310;2023-11-21T14:40:20;9.00;99.90
14053;DHT22;7101;51.600;7.310;2023-11-21T14:42:50;9.00;99.90
14053;DHT22;7101;51.600;7.310;2023-11-21T14:45:18;8.90;99.90
14053;DHT22;7101;51.600;7.310;2023-11-21T14:47:46;8.90;99.90
14053;DHT22;7101;51.600;7.310;2023-11-21T14:50:21;8.90;99.90
14053;DHT22;7101;51.600;7.310;2023-11-21T14:53:05;8.90;99.90
14053;DHT22;7101;51.600;7.310;2023-11-21T14:55:35;8.80;99.90
14053;DHT22;7101;51.600;7.310;2023-11-21T14:58:16;8.80;99.90
14053;DHT22;7101;51.600;7.310;2023-11-21T15:00:52;8.80;99.90
14053;DHT22;7101;51.600;7.310;2023-11-21T15:03:23;8.70;99.90
14053;DHT22;7101;51.600;7.310;2023-11-21T15:06:09;8.60;99.90
14053;DHT22;7101;51.600;7.310;2023-11-21T15:08:56;8.60;99.90
14053;DHT22;7101;51.600;7.310;2023-11-21T15:11:46;8.60;99.90
14053;DHT22;7101;51.600;7.310;2023-11-21T15:14:14;8.60;99.90
14053;DHT22;7101;51.600;7.310;2023-11-21T15:16:46;8.60;99.90
14053;DHT22;7101;51.600;7.310;2023-11-21T15:19:17;8.50;99.90
14053;DHT22;7101;51.600;7.310;2023-11-21T15:21:50;8.50;99.90
14053;DHT22;7101;51.600;7.310;2023-11-21T15:24:20;8.40;99.90
14053;DHT22;7101;51.600;7.310;2023-11-21T15:26:48;8.40;99.90
14053;DHT22;7101;51.600;7.310;2023-11-21T15:29:16;8.40;99.90
14053;DHT22;7101;51.600;7.310;2023-11-21T15:31:43;8.20;99.90
14053;DHT22;7101;51.600;7.310;2023-11-21T15:34:14;8.20;99.90
14053;DHT22;7101;51.600;7.310;2023-11-21T15:36:40;8.20;99.90
14053;DHT22;7101;51.600;7.310;2023-11-21T15:39:07;8.00;99.90
14053;DHT22;7101;51.600;7.310;2023-11-21T15:41:37;8.00;99.90
14053;DHT22;7101;51.600;7.310;2023-11-21T15:44:06;8.00;99.90
14053;DHT22;7101;51.600;7.310;2023-11-21T15:46:35;7.90;99.90
14053;DHT22;7101;51.600;7.310;2023-11-21T15:49:03;7.90;99.90
14053;DHT22;7101;51.600;7.310;2023-11-21T15:51:38;7.90;99.90
14053;DHT22;7101;51.600;7.310;2023-11-21T15:54:05;7.80;99.90
14053;DHT22;7101;51.600;7.310;2023-11-21T15:56:33;7.80;99.90
14053;DHT22;7101;51.600;7.310;2023-11-21T15:59:00;7.70;99.90
14053;DHT22;7101;51.600;7.310;2023-11-21T16:01:28;7.60;99.90
14053;DHT22;7101;51.600;7.310;2023-11-21T16:03:55;7.60;99.90
14053;DHT22;7101;51.600;7.310;2023-11-21T16:06:21;7.50;99.90
14053;DHT22;7101;51.600;7.310;2023-11-21T16:08:48;7.50;99.90
14053;DHT22;7101;51.600;7.310;2023-11-21T16:11:15;7.40;99.90